sensor_id;sensor_type;location;lat;lon;timestamp;P1;durP1;ratioP1;P2;durP2;ratioP2
6452;SDS011;3259;51.080;13.712;2023-03-25T00:01:31;1.20;;;0.40;;
6452;SDS011;3259;51.080;13.712;2023-03-25T00:04:21;2.28;;;0.65;;
6452;SDS011;3259;51.080;13.712;2023-03-25T00:07:12;0.60;;;0.52;;
6452;SDS011;3259;51.080;13.712;2023-03-25T00:10:01;0.60;;;0.30;;
6452;SDS011;3259;51.080;13.712;2023-03-25T00:12:50;1.52;;;0.30;;
6452;SDS011;3259;51.080;13.712;2023-03-25T00:15:40;1.17;;;0.70;;
6452;SDS011;3259;51.080;13.712;2023-03-25T00:18:31;3.78;;;0.47;;
6452;SDS011;3259;51.080;13.712;2023-03-25T00:21:21;1.27;;;0.40;;
6452;SDS011;3259;51.080;13.712;2023-03-25T00:24:10;1.00;;;0.40;;
6452;SDS011;3259;51.080;13.712;2023-03-25T00:27:03;1.65;;;0.43;;
6452;SDS011;3259;51.080;13.712;2023-03-25T00:29:52;1.38;;;0.52;;
6452;SDS011;3259;51.080;13.712;2023-03-25T00:32:41;0.32;;;0.32;;
6452;SDS011;3259;51.080;13.712;2023-03-25T00:35:36;1.20;;;0.30;;
6452;SDS011;3259;51.080;13.712;2023-03-25T00:38:27;0.52;;;0.30;;
6452;SDS011;3259;51.080;13.712;2023-03-25T00:41:19;0.45;;;0.38;;
6452;SDS011;3259;51.080;13.712;2023-03-25T00:44:10;0.65;;;0.40;;
6452;SDS011;3259;51.080;13.712;2023-03-25T00:46:59;1.15;;;0.70;;
6452;SDS011;3259;51.080;13.712;2023-03-25T00:49:48;0.63;;;0.50;;
6452;SDS011;3259;51.080;13.712;2023-03-25T00:52:38;1.25;;;0.45;;
6452;SDS011;3259;51.080;13.712;2023-03-25T00:55:28;0.40;;;0.22;;
6452;SDS011;3259;51.080;13.712;2023-03-25T00:58:17;2.17;;;0.50;;
6452;SDS011;3259;51.080;13.712;2023-03-25T01:01:09;0.20;;;0.20;;
6452;SDS011;3259;51.080;13.712;2023-03-25T01:03:59;1.65;;;0.50;;
6452;SDS011;3259;51.080;13.712;2023-03-25T01:06:48;1.42;;;0.47;;
6452;SDS011;3259;51.080;13.712;2023-03-25T01:09:37;0.22;;;0.22;;
6452;SDS011;3259;51.080;13.712;2023-03-25T01:12:28;4.22;;;0.30;;
6452;SDS011;3259;51.080;13.712;2023-03-25T01:15:17;1.42;;;0.35;;
6452;SDS011;3259;51.080;13.712;2023-03-25T01:18:06;0.38;;;0.20;;
6452;SDS011;3259;51.080;13.712;2023-03-25T01:20:55;0.40;;;0.40;;
6452;SDS011;3259;51.080;13.712;2023-03-25T01:23:44;3.17;;;0.50;;
6452;SDS011;3259;51.080;13.712;2023-03-25T01:26:33;1.40;;;0.50;;
6452;SDS011;3259;51.080;13.712;2023-03-25T01:29:23;0.60;;;0.22;;
6452;SDS011;3259;51.080;13.712;2023-03-25T01:32:11;1.02;;;0.93;;
6452;SDS011;3259;51.080;13.712;2023-03-25T01:35:00;1.48;;;0.28;;
6452;SDS011;3259;51.080;13.712;2023-03-25T01:37:50;1.77;;;0.28;;
6452;SDS011;3259;51.080;13.712;2023-03-25T01:40:40;1.23;;;0.20;;
6452;SDS011;3259;51.080;13.712;2023-03-25T01:43:29;1.00;;;0.32;;
6452;SDS011;3259;51.080;13.712;2023-03-25T01:46:19;1.10;;;0.28;;
6452;SDS011;3259;51.080;13.712;2023-03-25T01:49:08;1.90;;;0.30;;
6452;SDS011;3259;51.080;13.712;2023-03-25T01:52:00;0.60;;;0.30;;
6452;SDS011;3259;51.080;13.712;2023-03-25T01:54:51;0.85;;;0.20;;
6452;SDS011;3259;51.080;13.712;2023-03-25T01:57:41;1.50;;;0.60;;
6452;SDS011;3259;51.080;13.712;2023-03-25T02:00:31;0.20;;;0.20;;
6452;SDS011;3259;51.080;13.712;2023-03-25T02:03:22;0.60;;;0.32;;
6452;SDS011;3259;51.080;13.712;2023-03-25T02:06:13;0.30;;;0.30;;
6452;SDS011;3259;51.080;13.712;2023-03-25T02:09:04;0.50;;;0.30;;
6452;SDS011;3259;51.080;13.712;2023-03-25T02:11:54;1.00;;;0.43;;
6452;SDS011;3259;51.080;13.712;2023-03-25T02:14:43;1.95;;;0.35;;
6452;SDS011;3259;51.080;13.712;2023-03-25T02:17:32;1.80;;;0.30;;
6452;SDS011;3259;51.080;13.712;2023-03-25T02:27:23;0.70;;;0.40;;
6452;SDS011;3259;51.080;13.712;2023-03-25T02:30:36;1.95;;;0.30;;
6452;SDS011;3259;51.080;13.712;2023-03-25T02:33:40;2.55;;;0.60;;
6452;SDS011;3259;51.080;13.712;2023-03-25T02:36:39;0.43;;;0.20;;
6452;SDS011;3259;51.080;13.712;2023-03-25T02:39:59;3.80;;;0.40;;
6452;SDS011;3259;51.080;13.712;2023-03-25T02:42:53;0.22;;;0.10;;
6452;SDS011;3259;51.080;13.712;2023-03-25T02:45:48;0.22;;;0.22;;
6452;SDS011;3259;51.080;13.712;2023-03-25T02:48:41;0.70;;;0.32;;
6452;SDS011;3259;51.080;13.712;2023-03-25T02:51:34;0.52;;;0.38;;
6452;SDS011;3259;51.080;13.712;2023-03-25T02:54:25;1.10;;;0.38;;
6452;SDS011;3259;51.080;13.712;2023-03-25T02:57:17;0.20;;;0.20;;
6452;SDS011;3259;51.080;13.712;2023-03-25T03:00:10;0.73;;;0.30;;
6452;SDS011;3259;51.080;13.712;2023-03-25T03:03:02;3.28;;;0.63;;
6452;SDS011;3259;51.080;13.712;2023-03-25T03:05:52;0.32;;;0.13;;
6452;SDS011;3259;51.080;13.712;2023-03-25T03:08:57;2.85;;;0.30;;
6452;SDS011;3259;51.080;13.712;2023-03-25T03:11:56;3.05;;;0.55;;
6452;SDS011;3259;51.080;13.712;2023-03-25T03:15:02;0.52;;;0.20;;
6452;SDS011;3259;51.080;13.712;2023-03-25T03:18:02;0.22;;;0.22;;
6452;SDS011;3259;51.080;13.712;2023-03-25T03:20:54;0.52;;;0.30;;
6452;SDS011;3259;51.080;13.712;2023-03-25T03:23:49;0.35;;;0.30;;
6452;SDS011;3259;51.080;13.712;2023-03-25T03:26:43;0.82;;;0.10;;
6452;SDS011;3259;51.080;13.712;2023-03-25T03:29:36;1.15;;;0.52;;
6452;SDS011;3259;51.080;13.712;2023-03-25T03:32:35;0.40;;;0.20;;
6452;SDS011;3259;51.080;13.712;2023-03-25T03:35:29;0.80;;;0.80;;
6452;SDS011;3259;51.080;13.712;2023-03-25T03:38:20;1.10;;;0.30;;
6452;SDS011;3259;51.080;13.712;2023-03-25T03:41:11;0.50;;;0.30;;
6452;SDS011;3259;51.080;13.712;2023-03-25T03:44:02;0.28;;;0.20;;
6452;SDS011;3259;51.080;13.712;2023-03-25T03:46:54;0.73;;;0.50;;
6452;SDS011;3259;51.080;13.712;2023-03-25T03:49:49;0.10;;;0.10;;
6452;SDS011;3259;51.080;13.712;2023-03-25T03:52:40;1.17;;;0.28;;
6452;SDS011;3259;51.080;13.712;2023-03-25T03:55:32;1.85;;;0.60;;
6452;SDS011;3259;51.080;13.712;2023-03-25T03:58:25;0.77;;;0.30;;
6452;SDS011;3259;51.080;13.712;2023-03-25T04:01:18;0.30;;;0.20;;
6452;SDS011;3259;51.080;13.712;2023-03-25T04:04:17;0.25;;;0.10;;
6452;SDS011;3259;51.080;13.712;2023-03-25T04:07:10;0.20;;;0.20;;
6452;SDS011;3259;51.080;13.712;2023-03-25T04:10:02;1.17;;;0.45;;
6452;SDS011;3259;51.080;13.712;2023-03-25T04:13:01;0.20;;;0.20;;
6452;SDS011;3259;51.080;13.712;2023-03-25T04:15:51;1.63;;;0.98;;
6452;SDS011;3259;51.080;13.712;2023-03-25T04:18:40;0.93;;;0.32;;
6452;SDS011;3259;51.080;13.712;2023-03-25T04:21:33;0.30;;;0.10;;
6452;SDS011;3259;51.080;13.712;2023-03-25T04:24:23;0.20;;;0.20;;
6452;SDS011;3259;51.080;13.712;2023-03-25T04:27:12;2.10;;;0.68;;
6452;SDS011;3259;51.080;13.712;2023-03-25T04:30:01;0.30;;;0.30;;
6452;SDS011;3259;51.080;13.712;2023-03-25T04:32:50;0.10;;;0.10;;
6452;SDS011;3259;51.080;13.712;2023-03-25T04:35:40;0.85;;;0.20;;
6452;SDS011;3259;51.080;13.712;2023-03-25T04:38:28;0.90;;;0.30;;
6452;SDS011;3259;51.080;13.712;2023-03-25T04:41:19;0.15;;;0.10;;
6452;SDS011;3259;51.080;13.712;2023-03-25T04:44:07;0.20;;;0.20;;
6452;SDS011;3259;51.080;13.712;2023-03-25T04:46:56;0.35;;;0.13;;
6452;SDS011;3259;51.080;13.712;2023-03-25T04:49:45;0.63;;;0.10;;
6452;SDS011;3259;51.080;13.712;2023-03-25T04:52:34;1.80;;;0.20;;
6452;SDS011;3259;51.080;13.712;2023-03-25T04:55:23;0.32;;;0.20;;
6452;SDS011;3259;51.080;13.712;2023-03-25T04:58:14;2.70;;;0.20;;
6452;SDS011;3259;51.080;13.712;2023-03-25T05:01:02;0.32;;;0.10;;
6452;SDS011;3259;51.080;13.712;2023-03-25T05:03:52;1.88;;;0.38;;
6452;SDS011;3259;51.080;13.712;2023-03-25T05:06:45;1.00;;;0.20;;
6452;SDS011;3259;51.080;13.712;2023-03-25T05:09:36;0.85;;;0.10;;
6452;SDS011;3259;51.080;13.712;2023-03-25T05:12:24;1.00;;;0.10;;
6452;SDS011;3259;51.080;13.712;2023-03-25T05:15:15;0.38;;;0.10;;
6452;SDS011;3259;51.080;13.712;2023-03-25T05:18:05;1.10;;;0.45;;
6452;SDS011;3259;51.080;13.712;2023-03-25T05:20:56;1.23;;;0.20;;
6452;SDS011;3259;51.080;13.712;2023-03-25T05:23:46;0.10;;;0.10;;
6452;SDS011;3259;51.080;13.712;2023-03-25T05:26:35;0.47;;;0.38;;
6452;SDS011;3259;51.080;13.712;2023-03-25T05:29:25;1.23;;;0.20;;
6452;SDS011;3259;51.080;13.712;2023-03-25T05:32:15;0.22;;;0.10;;
6452;SDS011;3259;51.080;13.712;2023-03-25T05:35:04;0.95;;;0.10;;
6452;SDS011;3259;51.080;13.712;2023-03-25T05:37:53;1.08;;;0.20;;
6452;SDS011;3259;51.080;13.712;2023-03-25T05:40:43;0.82;;;0.10;;
6452;SDS011;3259;51.080;13.712;2023-03-25T05:43:33;0.85;;;0.10;;
6452;SDS011;3259;51.080;13.712;2023-03-25T05:46:21;0.08;;;0.00;;
6452;SDS011;3259;51.080;13.712;2023-03-25T05:49:11;0.22;;;0.10;;
6452;SDS011;3259;51.080;13.712;2023-03-25T05:52:00;0.05;;;0.05;;
6452;SDS011;3259;51.080;13.712;2023-03-25T05:54:49;0.13;;;0.13;;
6452;SDS011;3259;51.080;13.712;2023-03-25T05:57:38;0.40;;;0.03;;
6452;SDS011;3259;51.080;13.712;2023-03-25T06:00:26;0.57;;;0.10;;
6452;SDS011;3259;51.080;13.712;2023-03-25T06:03:16;0.00;;;0.00;;
6452;SDS011;3259;51.080;13.712;2023-03-25T06:06:08;0.20;;;0.10;;
6452;SDS011;3259;51.080;13.712;2023-03-25T06:08:59;1.08;;;0.10;;
6452;SDS011;3259;51.080;13.712;2023-03-25T06:11:48;0.10;;;0.10;;
6452;SDS011;3259;51.080;13.712;2023-03-25T06:14:39;0.15;;;0.10;;
6452;SDS011;3259;51.080;13.712;2023-03-25T06:17:31;0.10;;;0.10;;
6452;SDS011;3259;51.080;13.712;2023-03-25T06:20:20;0.30;;;0.20;;
6452;SDS011;3259;51.080;13.712;2023-03-25T06:23:10;0.20;;;0.20;;
6452;SDS011;3259;51.080;13.712;2023-03-25T06:25:59;0.13;;;0.10;;
6452;SDS011;3259;51.080;13.712;2023-03-25T06:28:49;0.45;;;0.10;;
6452;SDS011;3259;51.080;13.712;2023-03-25T06:31:38;0.10;;;0.10;;
6452;SDS011;3259;51.080;13.712;2023-03-25T06:34:28;0.82;;;0.22;;
6452;SDS011;3259;51.080;13.712;2023-03-25T06:37:18;1.65;;;0.10;;
6452;SDS011;3259;51.080;13.712;2023-03-25T06:40:09;4.28;;;0.20;;
6452;SDS011;3259;51.080;13.712;2023-03-25T06:42:59;2.40;;;0.43;;
6452;SDS011;3259;51.080;13.712;2023-03-25T06:45:49;0.35;;;0.00;;
6452;SDS011;3259;51.080;13.712;2023-03-25T06:48:39;1.17;;;0.10;;
6452;SDS011;3259;51.080;13.712;2023-03-25T06:51:28;0.30;;;0.10;;
6452;SDS011;3259;51.080;13.712;2023-03-25T06:54:16;1.52;;;0.10;;
6452;SDS011;3259;51.080;13.712;2023-03-25T06:57:09;0.73;;;0.20;;
6452;SDS011;3259;51.080;13.712;2023-03-25T06:59:58;0.43;;;0.32;;
6452;SDS011;3259;51.080;13.712;2023-03-25T07:02:47;1.02;;;0.38;;
6452;SDS011;3259;51.080;13.712;2023-03-25T07:05:39;1.27;;;0.13;;
6452;SDS011;3259;51.080;13.712;2023-03-25T07:08:29;0.82;;;0.20;;
6452;SDS011;3259;51.080;13.712;2023-03-25T07:11:20;0.10;;;0.10;;
6452;SDS011;3259;51.080;13.712;2023-03-25T07:14:16;0.77;;;0.10;;
6452;SDS011;3259;51.080;13.712;2023-03-25T07:17:05;5.50;;;0.73;;
6452;SDS011;3259;51.080;13.712;2023-03-25T07:19:54;0.10;;;0.10;;
6452;SDS011;3259;51.080;13.712;2023-03-25T07:22:43;14.30;;;0.40;;
6452;SDS011;3259;51.080;13.712;2023-03-25T07:25:31;1.75;;;0.10;;
6452;SDS011;3259;51.080;13.712;2023-03-25T07:28:20;0.73;;;0.20;;
6452;SDS011;3259;51.080;13.712;2023-03-25T07:31:12;1.05;;;0.20;;
6452;SDS011;3259;51.080;13.712;2023-03-25T07:34:01;0.20;;;0.10;;
6452;SDS011;3259;51.080;13.712;2023-03-25T07:36:51;0.65;;;0.17;;
6452;SDS011;3259;51.080;13.712;2023-03-25T07:39:40;1.83;;;0.40;;
6452;SDS011;3259;51.080;13.712;2023-03-25T07:42:29;0.30;;;0.10;;
6452;SDS011;3259;51.080;13.712;2023-03-25T07:45:18;1.13;;;0.20;;
6452;SDS011;3259;51.080;13.712;2023-03-25T07:48:08;2.17;;;0.30;;
6452;SDS011;3259;51.080;13.712;2023-03-25T07:51:00;1.10;;;0.10;;
6452;SDS011;3259;51.080;13.712;2023-03-25T07:53:49;1.55;;;0.10;;
6452;SDS011;3259;51.080;13.712;2023-03-25T07:56:37;0.93;;;0.20;;
6452;SDS011;3259;51.080;13.712;2023-03-25T07:59:26;0.22;;;0.13;;
6452;SDS011;3259;51.080;13.712;2023-03-25T08:02:15;0.10;;;0.10;;
6452;SDS011;3259;51.080;13.712;2023-03-25T08:05:06;0.32;;;0.30;;
6452;SDS011;3259;51.080;13.712;2023-03-25T08:07:55;0.22;;;0.20;;
6452;SDS011;3259;51.080;13.712;2023-03-25T08:10:46;0.25;;;0.15;;
6452;SDS011;3259;51.080;13.712;2023-03-25T08:13:34;0.10;;;0.10;;
6452;SDS011;3259;51.080;13.712;2023-03-25T08:16:23;0.40;;;0.03;;
6452;SDS011;3259;51.080;13.712;2023-03-25T08:19:12;0.30;;;0.10;;
6452;SDS011;3259;51.080;13.712;2023-03-25T08:22:02;12.18;;;0.52;;
6452;SDS011;3259;51.080;13.712;2023-03-25T08:24:51;0.00;;;0.00;;
6452;SDS011;3259;51.080;13.712;2023-03-25T08:27:40;1.50;;;0.22;;
6452;SDS011;3259;51.080;13.712;2023-03-25T08:30:29;0.10;;;0.10;;
6452;SDS011;3259;51.080;13.712;2023-03-25T08:33:24;0.73;;;0.10;;
6452;SDS011;3259;51.080;13.712;2023-03-25T08:36:19;0.20;;;0.20;;
6452;SDS011;3259;51.080;13.712;2023-03-25T08:39:10;0.30;;;0.10;;
6452;SDS011;3259;51.080;13.712;2023-03-25T08:42:02;1.15;;;0.20;;
6452;SDS011;3259;51.080;13.712;2023-03-25T08:44:52;0.13;;;0.10;;
6452;SDS011;3259;51.080;13.712;2023-03-25T08:47:41;0.93;;;0.17;;
6452;SDS011;3259;51.080;13.712;2023-03-25T08:50:31;2.28;;;0.15;;
6452;SDS011;3259;51.080;13.712;2023-03-25T08:53:20;0.10;;;0.10;;
6452;SDS011;3259;51.080;13.712;2023-03-25T08:56:10;0.10;;;0.10;;
6452;SDS011;3259;51.080;13.712;2023-03-25T08:58:59;2.47;;;0.10;;
6452;SDS011;3259;51.080;13.712;2023-03-25T09:01:47;1.35;;;0.20;;
6452;SDS011;3259;51.080;13.712;2023-03-25T09:04:38;20.92;;;1.73;;
6452;SDS011;3259;51.080;13.712;2023-03-25T09:07:27;6.70;;;1.40;;
6452;SDS011;3259;51.080;13.712;2023-03-25T09:10:16;7.32;;;1.02;;
6452;SDS011;3259;51.080;13.712;2023-03-25T09:13:07;6.55;;;1.73;;
6452;SDS011;3259;51.080;13.712;2023-03-25T09:15:56;4.93;;;1.08;;
6452;SDS011;3259;51.080;13.712;2023-03-25T09:18:45;14.57;;;2.47;;
6452;SDS011;3259;51.080;13.712;2023-03-25T09:21:33;7.18;;;1.58;;
6452;SDS011;3259;51.080;13.712;2023-03-25T09:24:22;11.68;;;2.10;;
6452;SDS011;3259;51.080;13.712;2023-03-25T09:27:11;11.25;;;2.00;;
6452;SDS011;3259;51.080;13.712;2023-03-25T09:30:01;7.20;;;2.00;;
6452;SDS011;3259;51.080;13.712;2023-03-25T09:32:51;3.15;;;2.05;;
6452;SDS011;3259;51.080;13.712;2023-03-25T09:35:40;4.13;;;1.38;;
6452;SDS011;3259;51.080;13.712;2023-03-25T09:38:29;4.65;;;1.48;;
6452;SDS011;3259;51.080;13.712;2023-03-25T09:41:22;4.57;;;1.08;;
6452;SDS011;3259;51.080;13.712;2023-03-25T09:44:28;6.95;;;1.35;;
6452;SDS011;3259;51.080;13.712;2023-03-25T09:47:21;3.40;;;1.00;;
6452;SDS011;3259;51.080;13.712;2023-03-25T09:50:11;2.50;;;0.95;;
6452;SDS011;3259;51.080;13.712;2023-03-25T09:53:03;3.35;;;1.40;;
6452;SDS011;3259;51.080;13.712;2023-03-25T09:55:54;1.38;;;0.70;;
6452;SDS011;3259;51.080;13.712;2023-03-25T09:58:44;3.08;;;0.75;;
6452;SDS011;3259;51.080;13.712;2023-03-25T10:01:36;2.40;;;0.70;;
6452;SDS011;3259;51.080;13.712;2023-03-25T10:04:42;1.88;;;0.57;;
6452;SDS011;3259;51.080;13.712;2023-03-25T10:07:40;1.35;;;0.70;;
6452;SDS011;3259;51.080;13.712;2023-03-25T10:10:34;1.08;;;0.45;;
6452;SDS011;3259;51.080;13.712;2023-03-25T10:13:29;4.13;;;0.60;;
6452;SDS011;3259;51.080;13.712;2023-03-25T10:16:25;1.73;;;0.50;;
6452;SDS011;3259;51.080;13.712;2023-03-25T10:19:22;3.30;;;0.40;;
6452;SDS011;3259;51.080;13.712;2023-03-25T10:22:20;1.30;;;0.70;;
6452;SDS011;3259;51.080;13.712;2023-03-25T10:25:15;1.98;;;0.90;;
6452;SDS011;3259;51.080;13.712;2023-03-25T10:28:06;0.40;;;0.40;;
6452;SDS011;3259;51.080;13.712;2023-03-25T10:30:59;1.60;;;0.55;;
6452;SDS011;3259;51.080;13.712;2023-03-25T10:33:50;0.88;;;0.50;;
6452;SDS011;3259;51.080;13.712;2023-03-25T10:36:43;1.52;;;0.50;;
6452;SDS011;3259;51.080;13.712;2023-03-25T10:39:38;3.22;;;0.55;;
6452;SDS011;3259;51.080;13.712;2023-03-25T10:42:32;1.30;;;0.52;;
6452;SDS011;3259;51.080;13.712;2023-03-25T10:45:22;5.35;;;0.60;;
6452;SDS011;3259;51.080;13.712;2023-03-25T10:48:12;2.42;;;0.20;;
6452;SDS011;3259;51.080;13.712;2023-03-25T10:51:06;3.60;;;0.55;;
6452;SDS011;3259;51.080;13.712;2023-03-25T10:53:56;10.43;;;0.57;;
6452;SDS011;3259;51.080;13.712;2023-03-25T10:56:47;4.78;;;0.52;;
6452;SDS011;3259;51.080;13.712;2023-03-25T10:59:38;4.22;;;0.60;;
6452;SDS011;3259;51.080;13.712;2023-03-25T11:02:31;0.47;;;0.17;;
6452;SDS011;3259;51.080;13.712;2023-03-25T11:05:21;1.10;;;0.28;;
6452;SDS011;3259;51.080;13.712;2023-03-25T11:08:13;0.55;;;0.35;;
6452;SDS011;3259;51.080;13.712;2023-03-25T11:11:11;1.40;;;0.32;;
6452;SDS011;3259;51.080;13.712;2023-03-25T11:14:02;0.68;;;0.28;;
6452;SDS011;3259;51.080;13.712;2023-03-25T11:16:52;0.47;;;0.25;;
6452;SDS011;3259;51.080;13.712;2023-03-25T11:19:43;1.40;;;0.60;;
6452;SDS011;3259;51.080;13.712;2023-03-25T11:22:35;0.32;;;0.25;;
6452;SDS011;3259;51.080;13.712;2023-03-25T11:25:25;1.50;;;0.13;;
6452;SDS011;3259;51.080;13.712;2023-03-25T11:28:18;2.78;;;0.55;;
6452;SDS011;3259;51.080;13.712;2023-03-25T11:31:12;1.85;;;0.10;;
6452;SDS011;3259;51.080;13.712;2023-03-25T11:34:04;1.33;;;0.28;;
6452;SDS011;3259;51.080;13.712;2023-03-25T11:36:58;1.40;;;0.20;;
6452;SDS011;3259;51.080;13.712;2023-03-25T11:39:50;0.95;;;0.28;;
6452;SDS011;3259;51.080;13.712;2023-03-25T11:42:42;1.30;;;0.20;;
6452;SDS011;3259;51.080;13.712;2023-03-25T11:45:35;0.38;;;0.20;;
6452;SDS011;3259;51.080;13.712;2023-03-25T11:48:28;0.25;;;0.17;;
6452;SDS011;3259;51.080;13.712;2023-03-25T11:51:19;0.43;;;0.10;;
6452;SDS011;3259;51.080;13.712;2023-03-25T11:54:10;0.17;;;0.10;;
6452;SDS011;3259;51.080;13.712;2023-03-25T11:57:01;0.10;;;0.10;;
6452;SDS011;3259;51.080;13.712;2023-03-25T11:59:59;0.65;;;0.20;;
6452;SDS011;3259;51.080;13.712;2023-03-25T12:02:57;0.10;;;0.10;;
6452;SDS011;3259;51.080;13.712;2023-03-25T12:05:59;0.00;;;0.00;;
6452;SDS011;3259;51.080;13.712;2023-03-25T12:08:51;0.10;;;0.10;;
6452;SDS011;3259;51.080;13.712;2023-03-25T12:11:42;0.20;;;0.10;;
6452;SDS011;3259;51.080;13.712;2023-03-25T12:14:41;0.57;;;0.10;;
6452;SDS011;3259;51.080;13.712;2023-03-25T12:17:40;0.40;;;0.10;;
6452;SDS011;3259;51.080;13.712;2023-03-25T12:20:46;0.40;;;0.10;;
6452;SDS011;3259;51.080;13.712;2023-03-25T12:23:45;0.30;;;0.20;;
6452;SDS011;3259;51.080;13.712;2023-03-25T12:26:39;0.75;;;0.10;;
6452;SDS011;3259;51.080;13.712;2023-03-25T12:29:35;0.20;;;0.10;;
6452;SDS011;3259;51.080;13.712;2023-03-25T12:32:31;0.82;;;0.10;;
6452;SDS011;3259;51.080;13.712;2023-03-25T12:35:27;0.10;;;0.10;;
6452;SDS011;3259;51.080;13.712;2023-03-25T12:38:26;0.10;;;0.10;;
6452;SDS011;3259;51.080;13.712;2023-03-25T12:41:25;0.77;;;0.17;;
6452;SDS011;3259;51.080;13.712;2023-03-25T12:44:19;0.20;;;0.20;;
6452;SDS011;3259;51.080;13.712;2023-03-25T12:47:22;0.10;;;0.10;;
6452;SDS011;3259;51.080;13.712;2023-03-25T12:50:15;0.10;;;0.10;;
6452;SDS011;3259;51.080;13.712;2023-03-25T12:53:14;0.10;;;0.00;;
6452;SDS011;3259;51.080;13.712;2023-03-25T12:56:15;0.10;;;0.10;;
6452;SDS011;3259;51.080;13.712;2023-03-25T12:59:23;0.13;;;0.13;;
6452;SDS011;3259;51.080;13.712;2023-03-25T13:02:26;2.30;;;0.10;;
6452;SDS011;3259;51.080;13.712;2023-03-25T13:05:23;1.17;;;0.20;;
6452;SDS011;3259;51.080;13.712;2023-03-25T13:08:15;2.50;;;0.00;;
6452;SDS011;3259;51.080;13.712;2023-03-25T13:11:06;0.10;;;0.10;;
6452;SDS011;3259;51.080;13.712;2023-03-25T13:14:03;0.13;;;0.13;;
6452;SDS011;3259;51.080;13.712;2023-03-25T13:16:56;0.10;;;0.10;;
6452;SDS011;3259;51.080;13.712;2023-03-25T13:19:48;0.95;;;0.13;;
6452;SDS011;3259;51.080;13.712;2023-03-25T13:22:39;0.17;;;0.10;;
6452;SDS011;3259;51.080;13.712;2023-03-25T13:25:32;0.10;;;0.05;;
6452;SDS011;3259;51.080;13.712;2023-03-25T13:28:25;0.52;;;0.10;;
6452;SDS011;3259;51.080;13.712;2023-03-25T13:31:17;0.20;;;0.00;;
6452;SDS011;3259;51.080;13.712;2023-03-25T13:34:12;0.20;;;0.17;;
6452;SDS011;3259;51.080;13.712;2023-03-25T13:37:09;0.63;;;0.10;;
6452;SDS011;3259;51.080;13.712;2023-03-25T13:40:02;0.10;;;0.10;;
6452;SDS011;3259;51.080;13.712;2023-03-25T13:42:58;0.50;;;0.08;;
6452;SDS011;3259;51.080;13.712;2023-03-25T13:45:49;1.20;;;0.20;;
6452;SDS011;3259;51.080;13.712;2023-03-25T13:48:42;0.03;;;0.00;;
6452;SDS011;3259;51.080;13.712;2023-03-25T13:51:35;0.10;;;0.10;;
6452;SDS011;3259;51.080;13.712;2023-03-25T13:54:26;0.10;;;0.10;;
6452;SDS011;3259;51.080;13.712;2023-03-25T14:00:46;0.25;;;0.20;;
6452;SDS011;3259;51.080;13.712;2023-03-25T14:07:19;0.13;;;0.13;;
6452;SDS011;3259;51.080;13.712;2023-03-25T14:10:27;0.10;;;0.10;;
6452;SDS011;3259;51.080;13.712;2023-03-25T14:13:25;0.50;;;0.20;;
6452;SDS011;3259;51.080;13.712;2023-03-25T14:16:18;0.52;;;0.10;;
6452;SDS011;3259;51.080;13.712;2023-03-25T14:19:10;1.08;;;0.30;;
6452;SDS011;3259;51.080;13.712;2023-03-25T14:22:05;1.95;;;0.10;;
6452;SDS011;3259;51.080;13.712;2023-03-25T14:24:56;0.20;;;0.10;;
6452;SDS011;3259;51.080;13.712;2023-03-25T14:27:47;0.30;;;0.20;;
6452;SDS011;3259;51.080;13.712;2023-03-25T14:30:36;0.55;;;0.20;;
6452;SDS011;3259;51.080;13.712;2023-03-25T14:33:25;0.25;;;0.20;;
6452;SDS011;3259;51.080;13.712;2023-03-25T14:36:15;0.68;;;0.20;;
6452;SDS011;3259;51.080;13.712;2023-03-25T14:39:07;1.05;;;0.30;;
6452;SDS011;3259;51.080;13.712;2023-03-25T14:41:59;0.30;;;0.30;;
6452;SDS011;3259;51.080;13.712;2023-03-25T14:44:49;0.43;;;0.32;;
6452;SDS011;3259;51.080;13.712;2023-03-25T14:47:49;0.57;;;0.17;;
6452;SDS011;3259;51.080;13.712;2023-03-25T14:50:39;0.15;;;0.10;;
6452;SDS011;3259;51.080;13.712;2023-03-25T14:53:28;0.17;;;0.17;;
6452;SDS011;3259;51.080;13.712;2023-03-25T14:56:18;0.30;;;0.10;;
6452;SDS011;3259;51.080;13.712;2023-03-25T14:59:13;0.10;;;0.10;;
6452;SDS011;3259;51.080;13.712;2023-03-25T15:02:03;1.95;;;0.10;;
6452;SDS011;3259;51.080;13.712;2023-03-25T15:04:57;0.90;;;0.20;;
6452;SDS011;3259;51.080;13.712;2023-03-25T15:07:46;0.80;;;0.22;;
6452;SDS011;3259;51.080;13.712;2023-03-25T15:10:37;1.00;;;0.20;;
6452;SDS011;3259;51.080;13.712;2023-03-25T15:13:28;0.73;;;0.13;;
6452;SDS011;3259;51.080;13.712;2023-03-25T15:16:27;0.00;;;0.00;;
6452;SDS011;3259;51.080;13.712;2023-03-25T15:19:19;0.20;;;0.10;;
6452;SDS011;3259;51.080;13.712;2023-03-25T15:22:19;0.20;;;0.10;;
6452;SDS011;3259;51.080;13.712;2023-03-25T15:25:10;0.75;;;0.15;;
6452;SDS011;3259;51.080;13.712;2023-03-25T15:28:07;0.30;;;0.20;;
6452;SDS011;3259;51.080;13.712;2023-03-25T15:31:02;0.45;;;0.10;;
6452;SDS011;3259;51.080;13.712;2023-03-25T15:34:08;0.20;;;0.10;;
6452;SDS011;3259;51.080;13.712;2023-03-25T15:37:07;0.15;;;0.10;;
6452;SDS011;3259;51.080;13.712;2023-03-25T15:40:33;0.10;;;0.10;;
6452;SDS011;3259;51.080;13.712;2023-03-25T15:43:55;0.20;;;0.10;;
6452;SDS011;3259;51.080;13.712;2023-03-25T15:47:21;0.43;;;0.20;;
6452;SDS011;3259;51.080;13.712;2023-03-25T15:50:19;0.68;;;0.20;;
6452;SDS011;3259;51.080;13.712;2023-03-25T15:56:31;0.65;;;0.10;;
6452;SDS011;3259;51.080;13.712;2023-03-25T15:59:27;0.70;;;0.10;;
6452;SDS011;3259;51.080;13.712;2023-03-25T16:02:21;0.98;;;0.28;;
6452;SDS011;3259;51.080;13.712;2023-03-25T16:05:13;0.70;;;0.10;;
6452;SDS011;3259;51.080;13.712;2023-03-25T16:08:06;1.67;;;0.25;;
6452;SDS011;3259;51.080;13.712;2023-03-25T16:10:56;0.10;;;0.10;;
6452;SDS011;3259;51.080;13.712;2023-03-25T16:13:44;0.20;;;0.13;;
6452;SDS011;3259;51.080;13.712;2023-03-25T16:16:34;1.02;;;0.25;;
6452;SDS011;3259;51.080;13.712;2023-03-25T16:19:26;0.10;;;0.10;;
6452;SDS011;3259;51.080;13.712;2023-03-25T16:22:18;0.20;;;0.20;;
6452;SDS011;3259;51.080;13.712;2023-03-25T16:25:13;0.90;;;0.20;;
6452;SDS011;3259;51.080;13.712;2023-03-25T16:28:06;0.50;;;0.20;;
6452;SDS011;3259;51.080;13.712;2023-03-25T16:31:00;0.70;;;0.13;;
6452;SDS011;3259;51.080;13.712;2023-03-25T16:33:50;0.00;;;0.00;;
6452;SDS011;3259;51.080;13.712;2023-03-25T16:36:38;0.20;;;0.20;;
6452;SDS011;3259;51.080;13.712;2023-03-25T16:39:29;0.25;;;0.13;;
6452;SDS011;3259;51.080;13.712;2023-03-25T16:42:23;0.73;;;0.10;;
6452;SDS011;3259;51.080;13.712;2023-03-25T16:45:13;0.90;;;0.20;;
6452;SDS011;3259;51.080;13.712;2023-03-25T16:48:04;0.20;;;0.10;;
6452;SDS011;3259;51.080;13.712;2023-03-25T16:50:56;0.15;;;0.10;;
6452;SDS011;3259;51.080;13.712;2023-03-25T16:53:48;0.10;;;0.10;;
6452;SDS011;3259;51.080;13.712;2023-03-25T16:56:37;1.02;;;0.20;;
6452;SDS011;3259;51.080;13.712;2023-03-25T16:59:28;0.50;;;0.20;;
6452;SDS011;3259;51.080;13.712;2023-03-25T17:02:24;0.93;;;0.20;;
6452;SDS011;3259;51.080;13.712;2023-03-25T17:05:14;0.35;;;0.30;;
6452;SDS011;3259;51.080;13.712;2023-03-25T17:08:06;0.70;;;0.30;;
6452;SDS011;3259;51.080;13.712;2023-03-25T17:10:57;0.20;;;0.20;;
6452;SDS011;3259;51.080;13.712;2023-03-25T17:13:47;1.45;;;0.10;;
6452;SDS011;3259;51.080;13.712;2023-03-25T17:16:39;0.22;;;0.22;;
6452;SDS011;3259;51.080;13.712;2023-03-25T17:19:28;0.20;;;0.20;;
6452;SDS011;3259;51.080;13.712;2023-03-25T17:22:19;0.55;;;0.40;;
6452;SDS011;3259;51.080;13.712;2023-03-25T17:25:13;1.38;;;0.17;;
6452;SDS011;3259;51.080;13.712;2023-03-25T17:28:05;0.20;;;0.20;;
6452;SDS011;3259;51.080;13.712;2023-03-25T17:31:18;0.60;;;0.10;;
6452;SDS011;3259;51.080;13.712;2023-03-25T17:34:17;1.45;;;0.50;;
6452;SDS011;3259;51.080;13.712;2023-03-25T17:37:09;1.20;;;0.40;;
6452;SDS011;3259;51.080;13.712;2023-03-25T17:40:00;3.15;;;0.40;;
6452;SDS011;3259;51.080;13.712;2023-03-25T17:42:57;1.13;;;0.28;;
6452;SDS011;3259;51.080;13.712;2023-03-25T17:45:45;1.13;;;0.40;;
6452;SDS011;3259;51.080;13.712;2023-03-25T17:48:34;3.67;;;0.43;;
6452;SDS011;3259;51.080;13.712;2023-03-25T17:51:25;4.47;;;0.32;;